ARCT2: Red River, ARthur City

Data processed at Thu May 23 2019 23:50


All information presented herein is the property of the government of the United States of America and may be revised or deleted at any time without prior notice.
Dissemination of this information without the expressed written consent of the Public Affairs Office, Tulsa District U.S. Army Corps of Engineers is strictly prohibited.
These data are gathered electronically and, as presented, have not undergone any form of quality control. These data are not guaranteed to be valid or correct.
Go to home page.
Go to station list.
Go to home page.

Upstream stations:

Downstream station:
Previous Day
Next Day
Current Day
    
SHEF ID:       ARCT2     Red River at Arthur City, TX
STATION TYPE:  
Regulating: Stage =    27.00, Flow =    85822

               PRECIP     STAGE  STAGE(2)  RIV-FLOW  BAT-LOAD
                   in        ft        ft       cfs      volt
              Ccp-Rev   Ccp-Rev   Ccp-Rev   Ccp-Rev   Ccp-Rev
(US/Central)
05/23 00:00      0.00     19.40     19.30     42448     12.65
05/23 01:00      0.00     19.33     19.25     42132     12.65
05/23 02:00      0.00     19.34     19.22     42177     12.65
05/23 03:00      0.00     19.15     19.10     41324     12.65
05/23 04:00      0.00     19.17     19.04     41413     12.57
05/23 05:00      0.00     19.12     19.02     41190     12.57
05/23 06:00      0.00     19.06     19.00     40923     12.57
05/23 07:00      0.00     19.04     18.92     40834     12.57
05/23 08:00      0.00     19.04     18.89     40834     12.73
05/23 09:00      0.00     18.96     18.87     40480     13.13
05/23 10:00      0.00     19.00     18.90     40657     13.44
05/23 11:00      0.00     18.98     18.83     40569     14.00
05/23 12:00      0.00     19.01     18.86     40701     13.13
05/23 13:00      0.00     18.98     18.90     40569     13.68
05/23 14:00      0.00     18.91     18.83     40259     13.05
05/23 15:00      0.00     18.97     18.86     40524     13.44
05/23 16:00      0.00     18.96     18.87     40480     13.53
05/23 17:00      0.00     19.03     18.86     40790     13.44
05/23 18:00      0.00     18.99     18.85     40613     13.37
05/23 19:00      0.00     19.00     18.89     40657     12.89
05/23 20:00      0.00     19.01     18.88     40701     12.89
05/23 21:00      0.00     18.99     18.90     40613     12.73
05/23 22:00      0.00     18.98     18.91     40569     12.65
05/23 23:00      0.00     19.00     18.92     40657     12.65